Wetterdaten: Sonntag, 24.05.2015
Datum Zeit Temp. A. Feuchte A. Luftdruck Regen Wind Richtung Richtung Sonnenschein ET UV Solar Taupunkt Windchill Windben Empfang
24.05.2015 00:00 9,2 C 99 % 1017,7 hPa 0,0 l/m 1,8 km/h (1 Bft) W-SW 256 0 min 0,000 mm 0,0 UV-I 0 W/m 9,1 C 9,2 C 4,0 km/h (1 Bft) 0,00 %
24.05.2015 00:15 9,0 C 99 % 1017,4 hPa 0,6 l/m 0,7 km/h (0 Bft) SW 230 0 min 0,000 mm 0,0 UV-I 0 W/m 8,9 C 9,0 C 4,0 km/h (1 Bft) 0,00 %
24.05.2015 00:30 9,0 C 99 % 1017,4 hPa 0,3 l/m 0,0 km/h (0 Bft) NO 34 0 min 0,000 mm 0,0 UV-I 0 W/m 8,9 C 9,0 C 0,0 km/h (0 Bft) 0,00 %
24.05.2015 00:45 8,9 C 99 % 1017,6 hPa 0,3 l/m 2,9 km/h (1 Bft) W-SW 253 0 min 0,000 mm 0,0 UV-I 0 W/m 8,8 C 8,9 C 4,0 km/h (1 Bft) 0,00 %
24.05.2015 01:00 8,9 C 99 % 1017,5 hPa 0,0 l/m 0,4 km/h (0 Bft) W-SW 252 0 min 0,000 mm 0,0 UV-I 0 W/m 8,8 C 8,9 C 4,0 km/h (1 Bft) 0,00 %
24.05.2015 01:15 8,9 C 99 % 1017,6 hPa 0,0 l/m 0,7 km/h (0 Bft) W-NW 299 0 min 0,000 mm 0,0 UV-I 0 W/m 8,8 C 8,9 C 4,0 km/h (1 Bft) 0,00 %
24.05.2015 01:30 8,9 C 99 % 1017,6 hPa 0,0 l/m 0,0 km/h (0 Bft) SW 223 0 min 0,000 mm 0,0 UV-I 0 W/m 8,8 C 8,9 C 0,0 km/h (0 Bft) 0,00 %
24.05.2015 01:45 8,9 C 99 % 1017,3 hPa 0,0 l/m 0,0 km/h (0 Bft) SO 128 0 min 0,000 mm 0,0 UV-I 0 W/m 8,8 C 8,9 C 0,0 km/h (0 Bft) 0,00 %
24.05.2015 02:00 8,9 C 99 % 1017,5 hPa 0,0 l/m 0,7 km/h (0 Bft) SW 226 0 min 0,000 mm 0,0 UV-I 0 W/m 8,8 C 8,9 C 4,0 km/h (1 Bft) 0,00 %
24.05.2015 02:15 8,9 C 99 % 1017,4 hPa 0,0 l/m 0,0 km/h (0 Bft) S 176 0 min 0,000 mm 0,0 UV-I 0 W/m 8,8 C 8,9 C 0,0 km/h (0 Bft) 0,00 %
24.05.2015 02:30 8,8 C 99 % 1017,5 hPa 0,0 l/m 0,4 km/h (0 Bft) SW 228 0 min 0,000 mm 0,0 UV-I 0 W/m 8,7 C 8,8 C 4,0 km/h (1 Bft) 0,00 %
24.05.2015 02:45 8,7 C 99 % 1017,3 hPa 0,0 l/m 0,0 km/h (0 Bft) S-SW 200 0 min 0,000 mm 0,0 UV-I 0 W/m 8,6 C 8,7 C 0,0 km/h (0 Bft) 0,00 %
24.05.2015 03:00 8,7 C 99 % 1017,4 hPa 0,0 l/m 0,0 km/h (0 Bft) S 180 0 min 0,000 mm 0,0 UV-I 0 W/m 8,6 C 8,7 C 0,0 km/h (0 Bft) 0,00 %
24.05.2015 03:15 8,6 C 99 % 1017,5 hPa 0,0 l/m 0,4 km/h (0 Bft) W-SW 252 0 min 0,000 mm 0,0 UV-I 0 W/m 8,5 C 8,6 C 4,0 km/h (1 Bft) 0,00 %
24.05.2015 03:30 8,6 C 99 % 1017,5 hPa 0,0 l/m 0,0 km/h (0 Bft) S 185 0 min 0,000 mm 0,0 UV-I 0 W/m 8,5 C 8,6 C 0,0 km/h (0 Bft) 0,00 %
24.05.2015 03:45 8,5 C 99 % 1017,4 hPa 0,0 l/m 0,7 km/h (0 Bft) W-SW 256 0 min 0,000 mm 0,0 UV-I 0 W/m 8,4 C 8,5 C 4,0 km/h (1 Bft) 0,00 %
24.05.2015 04:00 8,4 C 99 % 1017,4 hPa 0,0 l/m 0,0 km/h (0 Bft) S-SW 207 0 min 0,000 mm 0,0 UV-I 0 W/m 8,3 C 8,4 C 0,0 km/h (0 Bft) 0,00 %
24.05.2015 04:15 8,3 C 99 % 1017,6 hPa 0,0 l/m 0,7 km/h (0 Bft) S-SW 203 0 min 0,000 mm 0,0 UV-I 0 W/m 8,2 C 8,3 C 4,0 km/h (1 Bft) 0,00 %
24.05.2015 04:30 8,3 C 99 % 1017,5 hPa 0,0 l/m 1,8 km/h (1 Bft) W-SW 252 0 min 0,000 mm 0,0 UV-I 0 W/m 8,2 C 8,3 C 4,0 km/h (1 Bft) 0,00 %
24.05.2015 04:45 8,3 C 99 % 1017,6 hPa 0,0 l/m 0,0 km/h (0 Bft) W-SW 252 0 min 0,000 mm 0,0 UV-I 0 W/m 8,2 C 8,3 C 0,0 km/h (0 Bft) 0,00 %
24.05.2015 05:00 8,3 C 99 % 1017,7 hPa 0,3 l/m 0,7 km/h (0 Bft) W 280 0 min 0,000 mm 0,0 UV-I 0 W/m 8,2 C 8,3 C 4,0 km/h (1 Bft) 0,00 %
24.05.2015 05:15 8,3 C 99 % 1017,6 hPa 0,3 l/m 0,0 km/h (0 Bft) S 182 0 min 0,000 mm 0,0 UV-I 0 W/m 8,2 C 8,3 C 0,0 km/h (0 Bft) 0,00 %
24.05.2015 05:30 8,2 C 99 % 1017,7 hPa 0,0 l/m 1,4 km/h (1 Bft) W-SW 251 0 min 0,000 mm 0,0 UV-I 0 W/m 8,1 C 8,2 C 4,0 km/h (1 Bft) 0,00 %
24.05.2015 05:45 8,2 C 99 % 1017,6 hPa 0,0 l/m 0,4 km/h (0 Bft) SW 235 0 min 0,000 mm 0,0 UV-I 0 W/m 8,1 C 8,2 C 4,0 km/h (1 Bft) 0,00 %
24.05.2015 06:00 8,3 C 99 % 1017,8 hPa 0,0 l/m 0,0 km/h (0 Bft) S-SW 194 0 min 0,000 mm 0,0 UV-I 0 W/m 8,2 C 8,3 C 0,0 km/h (0 Bft) 0,00 %
24.05.2015 06:15 8,3 C 99 % 1017,7 hPa 0,3 l/m 0,7 km/h (0 Bft) W-SW 253 0 min 0,000 mm 0,0 UV-I 2 W/m 8,2 C 8,3 C 4,0 km/h (1 Bft) 0,00 %
24.05.2015 06:30 8,3 C 99 % 1018,0 hPa 0,0 l/m 0,0 km/h (0 Bft) S 177 0 min 0,000 mm 0,0 UV-I 0 W/m 8,2 C 8,3 C 0,0 km/h (0 Bft) 0,00 %
24.05.2015 06:45 8,4 C 99 % 1018,1 hPa 0,3 l/m 0,7 km/h (0 Bft) S-SW 197 0 min 0,000 mm 0,0 UV-I 5 W/m 8,3 C 8,4 C 4,0 km/h (1 Bft) 0,00 %
24.05.2015 07:00 8,4 C 99 % 1018,0 hPa 0,0 l/m 0,0 km/h (0 Bft) S 177 0 min 0,000 mm 0,0 UV-I 19 W/m 8,3 C 8,4 C 0,0 km/h (0 Bft) 0,00 %
24.05.2015 07:15 8,4 C 99 % 1018,1 hPa 0,0 l/m 0,4 km/h (0 Bft) SW 215 0 min 0,000 mm 0,0 UV-I 25 W/m 8,3 C 8,4 C 4,0 km/h (1 Bft) 0,00 %
24.05.2015 07:30 8,4 C 99 % 1018,2 hPa 0,3 l/m 2,9 km/h (1 Bft) W-SW 251 0 min 0,000 mm 0,0 UV-I 30 W/m 8,3 C 8,4 C 7,9 km/h (2 Bft) 0,00 %
24.05.2015 07:45 8,4 C 99 % 1018,4 hPa 0,0 l/m 0,4 km/h (0 Bft) S 175 0 min 0,000 mm 0,0 UV-I 27 W/m 8,3 C 8,4 C 4,0 km/h (1 Bft) 0,00 %
24.05.2015 08:00 8,4 C 98 % 1018,4 hPa 0,0 l/m 0,0 km/h (0 Bft) SW 234 0 min 0,000 mm 0,0 UV-I 22 W/m 8,1 C 8,4 C 0,0 km/h (0 Bft) 0,00 %
24.05.2015 08:15 8,5 C 98 % 1018,4 hPa 0,0 l/m 0,0 km/h (0 Bft) S 188 0 min 0,000 mm 0,0 UV-I 34 W/m 8,2 C 8,5 C 0,0 km/h (0 Bft) 0,00 %
24.05.2015 08:30 8,6 C 98 % 1018,4 hPa 0,0 l/m 0,0 km/h (0 Bft) S 183 0 min 0,000 mm 1,0 UV-I 67 W/m 8,3 C 8,6 C 0,0 km/h (0 Bft) 0,00 %
24.05.2015 08:45 8,7 C 98 % 1018,6 hPa 0,0 l/m 0,0 km/h (0 Bft) SW 231 0 min 0,000 mm 0,0 UV-I 63 W/m 8,4 C 8,7 C 0,0 km/h (0 Bft) 0,00 %
24.05.2015 09:00 8,7 C 98 % 1018,5 hPa 0,3 l/m 0,0 km/h (0 Bft) S-SW 209 0 min 0,000 mm 1,0 UV-I 46 W/m 8,4 C 8,7 C 0,0 km/h (0 Bft) 0,00 %
24.05.2015 09:15 8,8 C 98 % 1018,5 hPa 0,0 l/m 1,8 km/h (1 Bft) W-SW 253 0 min 0,000 mm 0,0 UV-I 72 W/m 8,5 C 8,8 C 4,0 km/h (1 Bft) 0,00 %
24.05.2015 09:30 8,9 C 98 % 1018,8 hPa 0,0 l/m 0,0 km/h (0 Bft) SW 230 0 min 0,000 mm 0,0 UV-I 64 W/m 8,6 C 8,9 C 0,0 km/h (0 Bft) 0,00 %
24.05.2015 09:45 8,9 C 98 % 1018,9 hPa 0,0 l/m 0,4 km/h (0 Bft) W-SW 256 0 min 0,000 mm 1,0 UV-I 66 W/m 8,6 C 8,9 C 4,0 km/h (1 Bft) 0,00 %
24.05.2015 10:00 9,3 C 97 % 1019,0 hPa 0,0 l/m 0,0 km/h (0 Bft) SW 228 0 min 0,000 mm 1,0 UV-I 120 W/m 8,8 C 9,3 C 0,0 km/h (0 Bft) 0,00 %
24.05.2015 10:15 9,6 C 96 % 1019,1 hPa 0,0 l/m 0,0 km/h (0 Bft) S-SW 196 0 min 0,000 mm 1,0 UV-I 83 W/m 9,0 C 9,6 C 0,0 km/h (0 Bft) 0,00 %
24.05.2015 10:30 9,7 C 96 % 1019,0 hPa 0,0 l/m 0,0 km/h (0 Bft) S 174 0 min 0,000 mm 1,0 UV-I 99 W/m 9,1 C 9,7 C 0,0 km/h (0 Bft) 0,00 %
24.05.2015 10:45 9,8 C 96 % 1019,2 hPa 0,0 l/m 0,4 km/h (0 Bft) S-SW 212 0 min 0,000 mm 1,0 UV-I 113 W/m 9,2 C 9,8 C 4,0 km/h (1 Bft) 0,00 %
24.05.2015 11:00 9,9 C 95 % 1019,2 hPa 0,0 l/m 1,8 km/h (1 Bft) S-SW 202 0 min 0,000 mm 1,0 UV-I 102 W/m 9,1 C 9,9 C 4,0 km/h (1 Bft) 0,00 %
24.05.2015 11:15 10,0 C 95 % 1019,1 hPa 0,0 l/m 2,9 km/h (1 Bft) W-SW 256 0 min 0,000 mm 1,0 UV-I 116 W/m 9,2 C 10,0 C 4,0 km/h (1 Bft) 0,00 %
24.05.2015 11:30 10,1 C 94 % 1019,1 hPa 0,0 l/m 0,0 km/h (0 Bft) S-SW 207 0 min 0,000 mm 1,0 UV-I 130 W/m 9,2 C 10,1 C 0,0 km/h (0 Bft) 0,00 %
24.05.2015 11:45 10,3 C 94 % 1019,2 hPa 0,0 l/m 1,8 km/h (1 Bft) S 175 0 min 0,000 mm 1,0 UV-I 141 W/m 9,4 C 10,3 C 4,0 km/h (1 Bft) 0,00 %
24.05.2015 12:00 10,3 C 94 % 1019,1 hPa 0,0 l/m 0,0 km/h (0 Bft) O-NO 59 0 min 0,000 mm 1,0 UV-I 152 W/m 9,4 C 10,3 C 0,0 km/h (0 Bft) 0,00 %
24.05.2015 12:15 10,3 C 94 % 1019,1 hPa 0,0 l/m 1,4 km/h (1 Bft) W-SW 252 0 min 0,000 mm 1,0 UV-I 131 W/m 9,4 C 10,3 C 4,0 km/h (1 Bft) 0,00 %
24.05.2015 12:30 10,4 C 94 % 1019,1 hPa 0,0 l/m 4,3 km/h (1 Bft) SW 234 0 min 0,000 mm 1,0 UV-I 132 W/m 9,5 C 10,4 C 7,9 km/h (2 Bft) 0,00 %
24.05.2015 12:45 10,5 C 93 % 1019,1 hPa 0,0 l/m 0,0 km/h (0 Bft) SO 145 0 min 0,000 mm 2,0 UV-I 121 W/m 9,4 C 10,5 C 0,0 km/h (0 Bft) 0,00 %
24.05.2015 13:00 10,9 C 92 % 1019,1 hPa 0,0 l/m 0,4 km/h (0 Bft) W-SW 252 0 min 0,000 mm 2,0 UV-I 185 W/m 9,7 C 10,9 C 4,0 km/h (1 Bft) 0,00 %
24.05.2015 13:15 10,9 C 92 % 1019,3 hPa 0,0 l/m 0,7 km/h (0 Bft) NW 308 0 min 0,000 mm 1,0 UV-I 187 W/m 9,7 C 10,9 C 4,0 km/h (1 Bft) 0,00 %
24.05.2015 13:30 11,2 C 91 % 1019,1 hPa 0,0 l/m 0,0 km/h (0 Bft) S 178 0 min 0,000 mm 2,0 UV-I 239 W/m 9,8 C 11,2 C 0,0 km/h (0 Bft) 0,00 %
24.05.2015 13:45 11,4 C 90 % 1019,2 hPa 0,0 l/m 0,4 km/h (0 Bft) S 176 0 min 0,000 mm 1,0 UV-I 228 W/m 9,8 C 11,4 C 4,0 km/h (1 Bft) 0,00 %
24.05.2015 14:00 11,4 C 89 % 1018,9 hPa 0,0 l/m 0,0 km/h (0 Bft) S 182 0 min 0,000 mm 1,0 UV-I 187 W/m 9,7 C 11,4 C 0,0 km/h (0 Bft) 0,00 %
24.05.2015 14:15 11,4 C 88 % 1018,8 hPa 0,0 l/m 0,0 km/h (0 Bft) S-SO 167 0 min 0,000 mm 2,0 UV-I 219 W/m 9,5 C 11,4 C 0,0 km/h (0 Bft) 0,00 %
24.05.2015 14:30 11,5 C 88 % 1018,8 hPa 0,0 l/m 1,8 km/h (1 Bft) W-SW 251 0 min 0,000 mm 1,0 UV-I 149 W/m 9,6 C 11,5 C 4,0 km/h (1 Bft) 0,00 %
24.05.2015 14:45 11,4 C 89 % 1018,8 hPa 0,0 l/m 0,4 km/h (0 Bft) SW 231 0 min 0,000 mm 1,0 UV-I 157 W/m 9,7 C 11,4 C 4,0 km/h (1 Bft) 0,00 %
24.05.2015 15:00 11,6 C 88 % 1018,8 hPa 0,0 l/m 2,2 km/h (1 Bft) W-SW 240 0 min 0,000 mm 1,0 UV-I 177 W/m 9,7 C 11,6 C 4,0 km/h (1 Bft) 0,00 %
24.05.2015 15:15 11,6 C 89 % 1018,7 hPa 0,0 l/m 0,0 km/h (0 Bft) S 184 0 min 0,000 mm 1,0 UV-I 169 W/m 9,8 C 11,6 C 0,0 km/h (0 Bft) 0,00 %
24.05.2015 15:30 11,6 C 88 % 1018,5 hPa 0,0 l/m 0,0 km/h (0 Bft) S 190 0 min 0,000 mm 1,0 UV-I 162 W/m 9,7 C 11,6 C 0,0 km/h (0 Bft) 0,00 %
24.05.2015 15:45 11,6 C 88 % 1018,5 hPa 0,0 l/m 4,0 km/h (1 Bft) W-SW 256 0 min 0,000 mm 1,0 UV-I 109 W/m 9,7 C 11,6 C 7,9 km/h (2 Bft) 0,00 %
24.05.2015 16:00 11,3 C 89 % 1018,4 hPa 0,0 l/m 0,0 km/h (0 Bft) W-SW 251 0 min 0,000 mm 1,0 UV-I 105 W/m 9,6 C 11,3 C 0,0 km/h (0 Bft) 0,00 %
24.05.2015 16:15 11,6 C 89 % 1018,2 hPa 0,0 l/m 0,7 km/h (0 Bft) SW 222 0 min 0,000 mm 2,0 UV-I 165 W/m 9,8 C 11,6 C 4,0 km/h (1 Bft) 0,00 %
24.05.2015 16:30 12,3 C 86 % 1018,3 hPa 0,0 l/m 0,0 km/h (0 Bft) S 179 0 min 0,000 mm 2,0 UV-I 232 W/m 10,0 C 12,3 C 0,0 km/h (0 Bft) 0,00 %
24.05.2015 16:45 12,4 C 84 % 1018,3 hPa 0,0 l/m 2,9 km/h (1 Bft) W-SW 255 0 min 0,000 mm 1,0 UV-I 185 W/m 9,8 C 12,4 C 7,9 km/h (2 Bft) 0,00 %
24.05.2015 17:00 12,2 C 85 % 1018,0 hPa 0,0 l/m 0,0 km/h (0 Bft) O-SO 111 0 min 0,000 mm 1,0 UV-I 141 W/m 9,8 C 12,2 C 0,0 km/h (0 Bft) 0,00 %
24.05.2015 17:15 12,0 C 85 % 1017,8 hPa 0,0 l/m 0,0 km/h (0 Bft) SO 128 0 min 0,000 mm 1,0 UV-I 117 W/m 9,6 C 12,0 C 0,0 km/h (0 Bft) 0,00 %
24.05.2015 17:30 12,0 C 84 % 1017,9 hPa 0,0 l/m 0,0 km/h (0 Bft) S 174 0 min 0,000 mm 1,0 UV-I 123 W/m 9,4 C 12,0 C 0,0 km/h (0 Bft) 0,00 %
24.05.2015 17:45 11,8 C 84 % 1017,7 hPa 0,0 l/m 0,0 km/h (0 Bft) S 190 0 min 0,000 mm 1,0 UV-I 86 W/m 9,2 C 11,8 C 0,0 km/h (0 Bft) 0,00 %
24.05.2015 18:00 11,7 C 85 % 1017,5 hPa 0,0 l/m 0,0 km/h (0 Bft) S-SW 202 0 min 0,000 mm 0,0 UV-I 54 W/m 9,3 C 11,7 C 0,0 km/h (0 Bft) 0,00 %
24.05.2015 18:15 11,6 C 86 % 1017,6 hPa 0,0 l/m 0,0 km/h (0 Bft) SW 233 0 min 0,000 mm 0,0 UV-I 40 W/m 9,3 C 11,6 C 0,0 km/h (0 Bft) 0,00 %
24.05.2015 18:30 11,4 C 88 % 1017,8 hPa 0,0 l/m 0,0 km/h (0 Bft) SO 146 0 min 0,000 mm 0,0 UV-I 35 W/m 9,5 C 11,4 C 0,0 km/h (0 Bft) 0,00 %
24.05.2015 18:45 11,3 C 89 % 1017,8 hPa 0,0 l/m 0,0 km/h (0 Bft) S-SW 213 0 min 0,000 mm 0,0 UV-I 25 W/m 9,6 C 11,3 C 0,0 km/h (0 Bft) 0,00 %
24.05.2015 19:00 11,2 C 90 % 1017,9 hPa 0,0 l/m 0,0 km/h (0 Bft) S-SW 195 0 min 0,000 mm 0,0 UV-I 17 W/m 9,6 C 11,2 C 0,0 km/h (0 Bft) 0,00 %
24.05.2015 19:15 11,1 C 91 % 1018,0 hPa 0,0 l/m 0,0 km/h (0 Bft) S-SW 206 0 min 0,000 mm 0,0 UV-I 7 W/m 9,7 C 11,1 C 0,0 km/h (0 Bft) 0,00 %
24.05.2015 19:30 11,1 C 92 % 1018,0 hPa 0,0 l/m 0,0 km/h (0 Bft) SW 226 0 min 0,000 mm 0,0 UV-I 4 W/m 9,8 C 11,1 C 0,0 km/h (0 Bft) 0,00 %
24.05.2015 19:45 11,0 C 92 % 1018,0 hPa 0,0 l/m 0,0 km/h (0 Bft) S 186 0 min 0,000 mm 0,0 UV-I 0 W/m 9,8 C 11,0 C 0,0 km/h (0 Bft) 0,00 %
24.05.2015 20:00 11,0 C 93 % 1017,9 hPa 0,0 l/m 0,0 km/h (0 Bft) S 186 0 min 0,000 mm 0,0 UV-I 0 W/m 9,9 C 11,0 C 0,0 km/h (0 Bft) 0,00 %
24.05.2015 20:15 11,0 C 93 % 1018,0 hPa 0,0 l/m 0,0 km/h (0 Bft) S 186 0 min 0,000 mm 0,0 UV-I 0 W/m 9,9 C 11,0 C 0,0 km/h (0 Bft) 0,00 %
24.05.2015 20:30 11,0 C 93 % 1017,8 hPa 0,0 l/m 0,0 km/h (0 Bft) S 186 0 min 0,000 mm 0,0 UV-I 0 W/m 9,9 C 11,0 C 0,0 km/h (0 Bft) 0,00 %
24.05.2015 20:45 10,9 C 93 % 1017,8 hPa 0,0 l/m 0,0 km/h (0 Bft) S 186 0 min 0,000 mm 0,0 UV-I 0 W/m 9,8 C 10,9 C 0,0 km/h (0 Bft) 0,00 %
24.05.2015 21:00 10,8 C 93 % 1017,9 hPa 0,0 l/m 0,0 km/h (0 Bft) S 186 0 min 0,000 mm 0,0 UV-I 0 W/m 9,7 C 10,8 C 0,0 km/h (0 Bft) 0,00 %
24.05.2015 21:15 10,8 C 94 % 1017,8 hPa 0,0 l/m 0,0 km/h (0 Bft) S 186 0 min 0,000 mm 0,0 UV-I 0 W/m 9,9 C 10,8 C 0,0 km/h (0 Bft) 0,00 %
24.05.2015 21:30 10,7 C 94 % 1017,7 hPa 0,0 l/m 0,0 km/h (0 Bft) S 186 0 min 0,000 mm 0,0 UV-I 0 W/m 9,8 C 10,7 C 0,0 km/h (0 Bft) 0,00 %
24.05.2015 21:45 10,7 C 94 % 1017,8 hPa 0,0 l/m 0,0 km/h (0 Bft) S 186 0 min 0,000 mm 0,0 UV-I 0 W/m 9,8 C 10,7 C 0,0 km/h (0 Bft) 0,00 %
24.05.2015 22:00 10,7 C 94 % 1018,0 hPa 0,0 l/m 0,0 km/h (0 Bft) S 186 0 min 0,000 mm 0,0 UV-I 0 W/m 9,8 C 10,7 C 0,0 km/h (0 Bft) 0,00 %
24.05.2015 22:15 10,7 C 94 % 1018,0 hPa 0,0 l/m 0,0 km/h (0 Bft) S 186 0 min 0,000 mm 0,0 UV-I 0 W/m 9,8 C 10,7 C 0,0 km/h (0 Bft) 0,00 %
24.05.2015 22:30 10,6 C 95 % 1017,9 hPa 0,0 l/m 0,0 km/h (0 Bft) S 186 0 min 0,000 mm 0,0 UV-I 0 W/m 9,8 C 10,6 C 0,0 km/h (0 Bft) 0,00 %
24.05.2015 22:45 10,6 C 95 % 1018,1 hPa 0,0 l/m 0,0 km/h (0 Bft) S 186 0 min 0,000 mm 0,0 UV-I 0 W/m 9,8 C 10,6 C 0,0 km/h (0 Bft) 0,00 %
24.05.2015 23:00 10,5 C 95 % 1018,0 hPa 0,0 l/m 0,0 km/h (0 Bft) S 186 0 min 0,000 mm 0,0 UV-I 0 W/m 9,7 C 10,5 C 0,0 km/h (0 Bft) 0,00 %
24.05.2015 23:15 10,5 C 96 % 1017,9 hPa 0,0 l/m 0,0 km/h (0 Bft) S 186 0 min 0,000 mm 0,0 UV-I 0 W/m 9,9 C 10,5 C 0,0 km/h (0 Bft) 0,00 %
24.05.2015 23:30 10,4 C 95 % 1018,0 hPa 0,0 l/m 0,0 km/h (0 Bft) S 186 0 min 0,000 mm 0,0 UV-I 0 W/m 9,6 C 10,4 C 0,0 km/h (0 Bft) 0,00 %
24.05.2015 23:45 10,4 C 96 % 1017,5 hPa 0,0 l/m 0,0 km/h (0 Bft) W-SW 252 0 min 0,000 mm 0,0 UV-I 0 W/m 9,8 C 10,4 C 0,0 km/h (0 Bft) 0,00 %
_ Min-Zeit 05:30 16:45 01:45 - 00:30 - - - - - - 05:30 05:30 00:30 00:00
Minimum _ 8,2 C 84 % 1017,3 hPa - 0,0 km/h (0 Bft) - - - - - - 8,1 C 8,2 C 0,0 km/h (0 Bft) 0,00 %
_ Max-Zeit 16:45 00:00 13:15 00:15 12:30 - - 00:00 00:00 12:45 13:30 16:30 16:45 07:30 00:00
Maximum _ 12,4 C 99 % 1019,3 hPa 0,6 l/m 4,3 km/h
SW (1 Bft)
- - 0 min 0,000 mm 2,0 UV-I 239 W/m 10,0 C 12,4 C 7,9 km/h
W-SW (2 Bft)
0,00 %
Durchschnitt _ 10,0 C 94 % 1018,2 hPa #3,0 l/m 0,5 km/h (0 Bft) W-SW - #0 min. #0,000 mm 1,2 UV-I 104 W/m 9,1 C 10,0 C 1,6 km/h (1 Bft) 0,00 %